createdAt,value
2018-12-23T00:04:32.100Z,3.27
2018-12-23T00:09:47.437Z,3.40
2018-12-23T00:14:58.270Z,3.10
2018-12-23T00:20:12.518Z,3.60
2018-12-23T00:25:25.186Z,4.03
2018-12-23T00:30:35.165Z,4.03
2018-12-23T00:35:45.305Z,2.80
2018-12-23T00:40:53.598Z,3.13
2018-12-23T00:46:08.803Z,3.53
2018-12-23T00:51:18.564Z,3.65
2018-12-23T00:56:31.144Z,3.73
2018-12-23T01:01:41.597Z,3.30
2018-12-23T01:06:49.001Z,3.37
2018-12-23T01:11:59.815Z,3.93
2018-12-23T01:17:12.579Z,3.73
2018-12-23T01:22:26.261Z,3.40
2018-12-23T01:27:35.606Z,3.93
2018-12-23T01:32:48.322Z,3.27
2018-12-23T01:37:58.151Z,3.07
2018-12-23T01:43:08.133Z,3.60
2018-12-23T01:48:20.646Z,3.53
2018-12-23T01:53:30.479Z,4.53
2018-12-23T01:58:46.115Z,4.60
2018-12-23T02:03:56.274Z,4.93
2018-12-23T02:09:05.028Z,4.13
2018-12-23T02:14:15.016Z,5.10
2018-12-23T02:19:23.985Z,4.87
2018-12-23T02:24:36.935Z,5.40
2018-12-23T02:29:47.266Z,5.77
2018-12-23T02:34:59.028Z,5.53
2018-12-23T02:40:13.835Z,6.23
2018-12-23T02:45:25.546Z,6.97
2018-12-23T02:50:38.150Z,7.23
2018-12-23T02:55:44.982Z,8.83
2018-12-23T03:00:58.521Z,8.90
2018-12-23T03:06:10.280Z,10.17
2018-12-23T03:11:22.030Z,10.35
2018-12-23T03:16:33.255Z,10.63
2018-12-23T03:21:47.898Z,12.63
2018-12-23T03:27:00.613Z,11.23
2018-12-23T03:32:11.522Z,10.80
2018-12-23T03:37:21.636Z,12.75
2018-12-23T03:42:34.444Z,13.73
2018-12-23T03:47:42.543Z,14.37
2018-12-23T03:52:55.291Z,14.23
2018-12-23T03:58:04.690Z,15.00
2018-12-23T04:03:13.303Z,15.33
2018-12-23T04:08:25.006Z,18.15
2018-12-23T04:13:37.701Z,18.13
2018-12-23T04:18:45.098Z,17.67
2018-12-23T04:23:55.101Z,18.67
2018-12-23T04:29:05.949Z,17.97
2018-12-23T04:34:13.704Z,17.27
2018-12-23T04:39:23.141Z,17.53
2018-12-23T04:44:30.941Z,16.10
2018-12-23T04:49:42.778Z,16.33
2018-12-23T04:54:56.230Z,18.17
2018-12-23T05:00:07.022Z,18.37
2018-12-23T05:05:20.564Z,19.53
2018-12-23T05:10:35.461Z,22.20
2018-12-23T05:15:45.349Z,23.13
2018-12-23T05:21:50.348Z,23.73
2018-12-23T05:27:04.069Z,23.27
2018-12-23T05:32:12.492Z,24.67
2018-12-23T05:37:25.059Z,25.50
2018-12-23T05:42:37.925Z,25.60
2018-12-23T05:47:52.048Z,26.93
2018-12-23T05:52:59.406Z,23.17
2018-12-23T05:58:11.343Z,25.70
2018-12-23T06:03:19.697Z,25.60
2018-12-23T06:08:32.105Z,25.47
2018-12-23T06:13:40.261Z,25.43
2018-12-23T06:18:51.093Z,24.27
2018-12-23T06:24:00.368Z,25.17
2018-12-23T06:29:10.949Z,25.80
2018-12-23T06:34:22.628Z,25.23
2018-12-23T06:39:30.621Z,26.63
2018-12-23T06:44:42.284Z,26.83
2018-12-23T06:49:52.173Z,24.77
2018-12-23T06:55:02.120Z,24.67
2018-12-23T07:00:10.875Z,26.60
2018-12-23T07:05:24.453Z,25.33
2018-12-23T07:10:39.685Z,25.30
2018-12-23T07:15:51.300Z,24.93
2018-12-23T07:21:01.368Z,25.53
2018-12-23T07:26:15.844Z,24.03
2018-12-23T07:31:24.300Z,21.77
2018-12-23T07:36:32.001Z,21.97
2018-12-23T07:41:43.583Z,22.90
2018-12-23T07:46:55.096Z,22.90
2018-12-23T07:52:06.696Z,21.87
2018-12-23T07:57:15.283Z,23.13
2018-12-23T08:02:26.915Z,23.42
2018-12-23T08:07:37.638Z,24.63
2018-12-23T08:12:50.291Z,26.00
2018-12-23T08:18:00.143Z,27.47
2018-12-23T08:23:14.769Z,27.20
2018-12-23T08:28:27.348Z,26.65
2018-12-23T08:33:42.692Z,28.00
2018-12-23T08:38:55.305Z,27.60
2018-12-23T08:44:08.997Z,31.73
2018-12-23T08:49:20.311Z,32.37
2018-12-23T08:54:34.469Z,32.73
2018-12-23T08:59:47.089Z,34.20
2018-12-23T09:04:59.661Z,31.40
2018-12-23T09:10:06.705Z,32.90
2018-12-23T09:15:16.550Z,32.80
2018-12-23T09:20:27.400Z,37.40
2018-12-23T09:25:33.602Z,35.23
2018-12-23T09:30:45.445Z,35.03
2018-12-23T09:35:55.300Z,34.70
2018-12-23T09:41:09.655Z,33.37
2018-12-23T09:46:17.817Z,33.78
2018-12-23T09:51:30.452Z,34.80
2018-12-23T09:56:47.339Z,33.90
2018-12-23T10:02:02.874Z,32.30
2018-12-23T10:07:11.871Z,35.77
2018-12-23T10:12:24.551Z,34.97
2018-12-23T10:17:37.774Z,35.13
2018-12-23T10:22:46.862Z,33.97
2018-12-23T10:27:55.630Z,34.80
2018-12-23T10:33:05.732Z,32.80
2018-12-23T10:38:18.722Z,32.23
2018-12-23T10:43:27.919Z,34.90
2018-12-23T10:48:40.709Z,33.70
2018-12-23T10:53:51.945Z,29.70
2018-12-23T10:59:02.742Z,32.30
2018-12-23T11:04:15.043Z,29.53
2018-12-23T11:09:27.159Z,28.83
2018-12-23T11:14:41.477Z,28.30
2018-12-23T11:19:49.693Z,28.17
2018-12-23T11:25:04.050Z,30.30
2018-12-23T11:30:17.063Z,29.60
2018-12-23T11:35:31.077Z,30.80
2018-12-23T11:40:42.310Z,29.83
2018-12-23T11:45:56.115Z,31.20
2018-12-23T11:51:10.444Z,30.13
2018-12-23T11:56:21.133Z,27.70
2018-12-23T12:01:31.819Z,22.23
2018-12-23T12:06:43.758Z,20.60
2018-12-23T12:11:56.466Z,20.70
2018-12-23T12:17:07.585Z,21.00
2018-12-23T12:22:19.271Z,21.47
2018-12-23T12:27:28.741Z,20.27
2018-12-23T12:32:43.348Z,16.83
2018-12-23T12:37:57.189Z,13.17
2018-12-23T12:43:09.009Z,11.63
2018-12-23T12:48:19.163Z,10.87
2018-12-23T12:53:29.763Z,11.47
2018-12-23T12:58:37.863Z,10.07
2018-12-23T13:03:52.168Z,11.17
2018-12-23T13:09:05.063Z,11.43
2018-12-23T13:14:17.741Z,9.47
2018-12-23T13:19:30.442Z,10.53
2018-12-23T13:24:42.439Z,9.93
2018-12-23T13:29:55.747Z,8.13
2018-12-23T13:35:07.399Z,8.10
2018-12-23T13:40:29.903Z,8.20
2018-12-23T13:46:22.986Z,7.90
2018-12-23T13:51:52.950Z,9.43
2018-12-23T13:57:23.706Z,8.53
2018-12-23T14:03:01.450Z,8.57
2018-12-23T14:08:31.943Z,9.33
2018-12-23T14:13:44.465Z,8.10
2018-12-23T14:18:57.269Z,9.33
2018-12-23T14:24:07.456Z,9.67
2018-12-23T14:29:18.030Z,10.30
2018-12-23T14:34:32.517Z,9.13
2018-12-23T14:39:45.524Z,10.30
2018-12-23T14:44:58.915Z,10.27
2018-12-23T14:50:13.292Z,8.63
2018-12-23T14:55:20.696Z,9.60
2018-12-23T15:00:29.646Z,9.77
2018-12-23T15:05:44.207Z,8.00
2018-12-23T15:10:51.975Z,9.90
2018-12-23T15:16:04.248Z,10.00
2018-12-23T15:21:17.095Z,12.27
2018-12-23T15:26:33.479Z,16.10
2018-12-23T15:31:49.733Z,12.50
2018-12-23T15:37:00.456Z,19.13
2018-12-23T15:42:10.755Z,16.97
2018-12-23T15:47:21.604Z,15.70
2018-12-23T15:52:33.202Z,15.40
2018-12-23T15:57:39.517Z,16.90
2018-12-23T16:02:49.448Z,15.40
2018-12-23T16:08:04.990Z,20.77
2018-12-23T16:13:11.908Z,19.40
2018-12-23T16:18:24.749Z,25.57
2018-12-23T16:23:39.318Z,24.80
2018-12-23T16:28:48.421Z,23.90
2018-12-23T16:34:00.100Z,24.43
2018-12-23T16:39:16.901Z,19.57
2018-12-23T16:44:26.721Z,23.02
2018-12-23T16:49:35.083Z,21.53
2018-12-23T16:54:44.104Z,23.47
2018-12-23T16:59:56.764Z,26.37
2018-12-23T17:05:08.564Z,25.63
2018-12-23T17:10:22.052Z,29.63
2018-12-23T17:15:32.945Z,22.37
2018-12-23T17:20:45.481Z,23.43
2018-12-23T17:25:56.200Z,18.17
2018-12-23T17:31:05.189Z,9.90
2018-12-23T17:36:14.669Z,5.63
2018-12-23T17:41:26.308Z,4.60
2018-12-23T17:46:37.988Z,3.67
2018-12-23T17:51:49.647Z,3.47
2018-12-23T17:57:03.226Z,3.50
2018-12-23T18:02:10.658Z,4.60
2018-12-23T18:07:22.287Z,4.40
2018-12-23T18:12:34.445Z,5.93
2018-12-23T18:17:45.137Z,6.17
2018-12-23T18:22:58.279Z,5.80
2018-12-23T18:28:09.136Z,5.80
2018-12-23T18:33:22.630Z,5.33
2018-12-23T18:38:30.631Z,4.40
2018-12-23T18:43:39.174Z,5.40
2018-12-23T18:48:52.615Z,6.27
2018-12-23T18:54:01.945Z,7.00
2018-12-23T18:59:10.867Z,7.20
2018-12-23T19:04:21.272Z,6.40
2018-12-23T19:09:40.546Z,6.53
2018-12-23T19:15:22.770Z,7.00
2018-12-23T19:20:51.968Z,7.00
2018-12-23T19:26:54.573Z,7.28
2018-12-23T19:32:40.643Z,8.07
2018-12-23T19:38:11.138Z,7.60
2018-12-23T19:44:13.507Z,8.63
2018-12-23T19:50:01.132Z,8.63
2018-12-23T19:55:29.705Z,8.37
2018-12-23T20:01:08.392Z,9.33
2018-12-23T20:06:47.156Z,8.50
2018-12-23T20:12:33.679Z,8.90
2018-12-23T20:18:01.781Z,7.63
2018-12-23T20:23:53.947Z,9.57
2018-12-23T20:29:55.943Z,7.87
2018-12-23T20:35:41.164Z,9.03
2018-12-23T20:41:31.141Z,8.30
2018-12-23T20:47:11.055Z,7.27
2018-12-23T20:52:47.781Z,7.90
2018-12-23T20:58:37.260Z,7.15
2018-12-23T21:04:27.235Z,8.85
2018-12-23T21:10:11.654Z,6.87
2018-12-23T21:15:58.508Z,6.10
2018-12-23T21:21:42.494Z,6.13
2018-12-23T21:27:27.654Z,6.00
2018-12-23T21:33:20.681Z,7.60
2018-12-23T21:38:59.405Z,6.40
2018-12-23T21:44:55.755Z,7.27
2018-12-23T21:50:36.131Z,6.65
2018-12-23T21:56:22.567Z,7.00
2018-12-23T22:01:54.230Z,7.90
2018-12-23T22:07:58.335Z,7.67
2018-12-23T22:13:32.493Z,7.63
2018-12-23T22:18:42.627Z,7.40
2018-12-23T22:23:52.041Z,8.03
2018-12-23T22:29:08.992Z,7.03
2018-12-23T22:34:18.017Z,6.17
2018-12-23T22:39:29.767Z,5.03
2018-12-23T22:44:41.574Z,5.20
2018-12-23T22:49:51.593Z,5.17
2018-12-23T22:55:03.254Z,5.50
2018-12-23T23:00:14.301Z,6.00
2018-12-23T23:05:31.732Z,5.17
2018-12-23T23:10:45.218Z,5.37
2018-12-23T23:15:56.304Z,5.97
2018-12-23T23:21:13.359Z,5.17
2018-12-23T23:26:25.120Z,5.90
2018-12-23T23:31:33.125Z,5.03
2018-12-23T23:36:43.206Z,5.00
2018-12-23T23:41:58.557Z,5.13
2018-12-23T23:47:04.081Z,5.30
2018-12-23T23:52:13.191Z,5.83
2018-12-23T23:57:27.619Z,6.13
